createdAt,value
2019-01-14T00:10:44.148Z,12.93
2019-01-14T00:15:48.718Z,22.27
2019-01-14T00:21:11.930Z,17.83
2019-01-14T00:26:16.228Z,12.03
2019-01-14T00:36:49.649Z,11.23
2019-01-14T00:41:53.974Z,14.90
2019-01-14T00:47:44.639Z,7.87
2019-01-14T00:52:48.913Z,12.40
2019-01-14T00:57:53.137Z,10.33
2019-01-14T01:02:57.381Z,14.10
2019-01-14T01:08:01.609Z,9.67
2019-01-14T01:13:05.863Z,9.93
2019-01-14T01:18:29.157Z,9.33
2019-01-14T01:23:33.376Z,4.37
2019-01-14T01:28:37.603Z,8.03
2019-01-14T01:34:01.211Z,8.00
2019-01-14T01:39:46.902Z,6.60
2019-01-14T01:50:13.200Z,8.90
2019-01-14T01:55:29.356Z,5.23
2019-01-14T02:11:12.880Z,3.07
2019-01-14T02:21:47.576Z,3.43
2019-01-14T02:26:51.805Z,2.63
2019-01-14T02:32:15.096Z,3.33
2019-01-14T02:37:19.315Z,1.03
2019-01-14T02:42:23.564Z,3.97
2019-01-14T02:52:56.911Z,1.97
2019-01-14T03:03:10.980Z,2.73
2019-01-14T03:08:34.597Z,1.67
2019-01-14T03:13:38.824Z,10.00
2019-01-14T03:18:43.050Z,8.37
2019-01-14T03:23:47.628Z,12.07
2019-01-14T03:28:51.880Z,9.13
2019-01-14T03:33:56.108Z,10.10
2019-01-14T03:39:00.334Z,17.90
2019-01-14T03:49:35.438Z,16.37
2019-01-14T03:54:51.699Z,14.17
2019-01-14T04:00:14.859Z,18.50
2019-01-14T04:05:19.496Z,15.57
2019-01-14T04:10:42.789Z,14.53
2019-01-14T04:20:57.482Z,13.03
2019-01-14T04:26:02.041Z,10.77
2019-01-14T04:31:25.461Z,10.63
2019-01-14T04:36:29.686Z,11.33
2019-01-14T04:41:33.916Z,7.97
2019-01-14T04:52:07.157Z,11.60
2019-01-14T04:57:30.478Z,11.33
2019-01-14T05:13:14.203Z,9.30
2019-01-14T05:18:18.437Z,12.53
2019-01-14T05:23:41.767Z,12.50
2019-01-14T05:28:46.002Z,10.87
2019-01-14T05:34:09.677Z,14.80
2019-01-14T05:39:14.036Z,11.03
2019-01-14T05:44:18.221Z,15.50
2019-01-14T05:49:22.783Z,7.17
2019-01-14T05:59:50.768Z,14.77
2019-01-14T06:05:35.265Z,9.00
2019-01-14T06:11:20.156Z,11.90
2019-01-14T06:28:11.555Z,11.00
2019-01-14T06:33:55.279Z,8.90
2019-01-14T06:57:14.817Z,10.43
2019-01-14T07:02:31.429Z,8.63
2019-01-14T07:07:47.950Z,15.33
2019-01-14T07:13:33.152Z,11.23
2019-01-14T07:19:18.336Z,10.23
2019-01-14T07:36:44.567Z,7.17
2019-01-14T07:42:15.009Z,9.00
2019-01-14T07:47:59.510Z,12.30
2019-01-14T07:59:35.011Z,14.53
2019-01-14T08:04:53.297Z,8.73
2019-01-14T08:10:10.079Z,12.90
2019-01-14T08:15:28.201Z,9.07
2019-01-14T08:20:45.067Z,10.23
2019-01-14T08:26:01.541Z,3.57
2019-01-14T08:31:19.330Z,0.80
2019-01-14T08:36:37.384Z,0.80
2019-01-14T08:41:58.829Z,0.73
2019-01-14T08:47:15.576Z,0.97
2019-01-14T08:52:33.201Z,1.37
2019-01-14T08:57:54.441Z,0.73
2019-01-14T09:08:59.929Z,0.67
2019-01-14T09:14:17.068Z,3.00
2019-01-14T09:19:35.024Z,0.50
2019-01-14T09:24:51.769Z,0.70
2019-01-14T09:30:09.307Z,0.87
2019-01-14T09:35:27.267Z,3.60
2019-01-14T09:41:11.622Z,1.43
2019-01-14T09:52:47.844Z,1.10
2019-01-14T10:04:25.500Z,3.07
2019-01-14T10:09:45.267Z,1.77
2019-01-14T10:15:02.709Z,0.97
2019-01-14T10:20:21.109Z,2.00
2019-01-14T10:25:38.406Z,1.47
2019-01-14T10:30:55.949Z,2.90
2019-01-14T10:36:15.377Z,1.23
2019-01-14T10:41:32.988Z,1.47
2019-01-14T10:47:02.244Z,3.90
2019-01-14T10:52:09.399Z,3.53
2019-01-14T10:57:18.711Z,3.70
2019-01-14T11:02:26.877Z,7.87
2019-01-14T11:07:32.893Z,2.57
2019-01-14T11:12:40.050Z,4.40
2019-01-14T11:17:48.581Z,10.27
2019-01-14T11:22:59.781Z,5.37
2019-01-14T11:28:09.538Z,4.30
2019-01-14T11:33:17.762Z,7.10
2019-01-14T11:38:44.174Z,6.80
2019-01-14T11:43:50.592Z,6.47
2019-01-14T11:48:58.219Z,5.27
2019-01-14T11:54:06.128Z,4.33
2019-01-14T11:59:12.923Z,6.27
2019-01-14T12:04:19.458Z,6.93
2019-01-14T12:09:30.020Z,6.17
2019-01-14T12:14:42.302Z,6.70
2019-01-14T12:19:50.689Z,5.07
2019-01-14T12:24:57.212Z,4.23
2019-01-14T12:30:04.440Z,5.40
2019-01-14T12:35:12.398Z,7.47
2019-01-14T12:40:24.039Z,9.07
2019-01-14T12:45:29.848Z,5.70
2019-01-14T12:50:36.739Z,5.67
2019-01-14T12:55:42.878Z,7.63
2019-01-14T13:00:49.023Z,7.53
2019-01-14T13:05:55.233Z,9.90
2019-01-14T13:11:01.614Z,6.27
2019-01-14T13:16:12.399Z,5.37
2019-01-14T13:21:19.668Z,11.57
2019-01-14T13:26:26.079Z,5.53
2019-01-14T13:31:35.820Z,12.47
2019-01-14T13:36:42.126Z,10.30
2019-01-14T13:41:51.475Z,9.93
2019-01-14T13:46:58.314Z,8.23
2019-01-14T13:52:04.649Z,8.70
2019-01-14T13:57:17.108Z,9.23
2019-01-14T14:08:12.608Z,8.33
2019-01-14T14:13:35.932Z,4.57
2019-01-14T14:24:23.079Z,7.13
2019-01-14T14:29:27.760Z,4.43
2019-01-14T14:40:01.773Z,4.73
2019-01-14T14:45:45.969Z,7.20
2019-01-14T14:50:50.245Z,7.80
2019-01-14T15:01:42.641Z,7.33
2019-01-14T15:07:05.944Z,8.10
2019-01-14T15:12:29.260Z,7.20
2019-01-14T15:17:33.865Z,6.63
2019-01-14T15:22:38.139Z,3.70
2019-01-14T15:38:22.292Z,4.60
2019-01-14T15:48:36.052Z,6.27
2019-01-14T15:53:40.291Z,2.77
2019-01-14T15:58:44.516Z,4.30
2019-01-14T16:04:07.884Z,9.53
2019-01-14T16:09:12.119Z,9.33
2019-01-14T16:14:16.346Z,10.17
2019-01-14T16:24:30.652Z,7.87
2019-01-14T16:29:34.945Z,12.60
2019-01-14T16:34:39.179Z,5.87
2019-01-14T16:39:43.719Z,7.97
2019-01-14T16:44:48.005Z,7.50
2019-01-14T16:55:02.101Z,11.23
2019-01-14T17:00:25.410Z,10.20
2019-01-14T17:05:48.707Z,13.47
2019-01-14T17:11:12.062Z,10.13
2019-01-14T17:16:35.368Z,10.73
2019-01-14T17:21:39.946Z,14.97
2019-01-14T17:26:44.272Z,15.33
2019-01-14T17:32:07.577Z,10.13
2019-01-14T17:37:11.807Z,8.77
2019-01-14T17:42:35.527Z,7.07
2019-01-14T17:47:58.841Z,14.37
2019-01-14T17:58:13.267Z,9.03
2019-01-14T18:03:17.593Z,7.60
2019-01-14T18:24:10.906Z,13.20
2019-01-14T18:29:26.702Z,6.77
2019-01-14T18:34:30.953Z,9.80
2019-01-14T18:39:35.198Z,7.57
2019-01-14T18:44:39.439Z,9.13
2019-01-14T18:49:43.670Z,11.57
2019-01-14T18:54:49.876Z,13.93
2019-01-14T19:00:13.329Z,9.43
2019-01-14T19:05:17.603Z,7.67
2019-01-14T19:10:22.336Z,9.40
2019-01-14T19:15:45.686Z,14.30
2019-01-14T19:26:51.891Z,13.27
2019-01-14T19:32:08.177Z,12.97
2019-01-14T19:37:13.046Z,9.77
2019-01-14T19:42:17.504Z,10.00
2019-01-14T19:47:23.020Z,12.97
2019-01-14T19:52:27.422Z,9.47
2019-01-14T19:57:31.753Z,12.37
2019-01-14T20:02:36.008Z,12.67
2019-01-14T20:18:38.280Z,12.90
2019-01-14T20:24:01.602Z,14.90
2019-01-14T20:29:05.896Z,10.30
2019-01-14T20:34:22.224Z,8.70
2019-01-14T20:39:26.478Z,20.10
2019-01-14T20:49:40.551Z,12.47
2019-01-14T21:00:34.209Z,13.83
2019-01-14T21:05:38.428Z,13.33
2019-01-14T21:26:33.322Z,19.23
2019-01-14T21:31:56.638Z,21.87
2019-01-14T21:37:01.025Z,15.30
2019-01-14T21:42:24.343Z,19.43
2019-01-14T21:58:47.472Z,18.00
2019-01-14T22:03:51.929Z,14.87
2019-01-14T22:09:35.599Z,14.83
2019-01-14T22:14:39.858Z,16.00
2019-01-14T22:19:45.426Z,17.53
2019-01-14T22:24:50.478Z,12.63
2019-01-14T22:30:15.924Z,9.73
2019-01-14T22:35:39.262Z,15.23
2019-01-14T22:40:54.949Z,15.33
2019-01-14T22:51:49.743Z,20.50
2019-01-14T22:57:13.055Z,14.97
2019-01-14T23:17:47.533Z,27.30
2019-01-14T23:22:52.412Z,22.23
2019-01-14T23:28:15.729Z,16.07
2019-01-14T23:33:19.982Z,15.93
2019-01-14T23:38:43.383Z,10.67
2019-01-14T23:48:57.452Z,13.23
2019-01-14T23:54:20.754Z,6.50
2019-01-14T23:59:25.012Z,12.23
